< < Back
Terminal Aerodrome Forecast


Current Version              Previous Versions:   1  2  3  4  5  6  7  8  9  

Terminal Aerodrome Forecast

393
FTUS42 KJAX 222300 RRA
TAFSSI
TAF
KSSI 222353Z 2300/2324 VRB05KT 5SM -RA BR VCTS BKN003 BKN020CB
      OVC035
      TEMPO 2300/2304 2SM +TSRA BR
     FM230500 06008KT 2SM BR VCSH OVC003
     FM230900 15006KT 2SM BR BKN003 OVC010
     FM231300 18008KT P6SM SCT003 BKN010 BKN090
     FM231500 18010KT P6SM BKN020 BKN090 BKN200=

Latest METAR

982
SAUS70 KWBC 230100 RRR
MTRSSI
METAR KSSI 230053Z AUTO 10003KT 5SM RA BR OVC003 14/13 A2994 RMK AO2 LTG
DSNT E-SW RAB2355 SLP137 P0001 T01390133


USA.gov is the U.S. government's official web portal to all federal, state and local government web resources and services.